sensor_id;sensor_type;location;lat;lon;timestamp;temperature;humidity
40952;DHT22;26682;51.660;19.338;2022-12-11T00:01:09;-0.70;1.00
40952;DHT22;26682;51.660;19.338;2022-12-11T00:03:00;-0.70;1.00
40952;DHT22;26682;51.660;19.338;2022-12-11T00:04:47;-0.70;1.00
40952;DHT22;26682;51.660;19.338;2022-12-11T00:06:34;-0.70;1.00
40952;DHT22;26682;51.660;19.338;2022-12-11T00:08:22;-0.70;1.00
40952;DHT22;26682;51.660;19.338;2022-12-11T00:10:09;-0.70;1.00
40952;DHT22;26682;51.660;19.338;2022-12-11T00:11:56;-0.70;1.00
40952;DHT22;26682;51.660;19.338;2022-12-11T00:13:43;-0.70;1.00
40952;DHT22;26682;51.660;19.338;2022-12-11T00:15:30;-0.70;1.00
40952;DHT22;26682;51.660;19.338;2022-12-11T00:17:17;-0.70;1.00
40952;DHT22;26682;51.660;19.338;2022-12-11T00:19:05;-0.80;1.00
40952;DHT22;26682;51.660;19.338;2022-12-11T00:20:52;-0.70;1.00
40952;DHT22;26682;51.660;19.338;2022-12-11T00:22:39;-0.80;1.00
40952;DHT22;26682;51.660;19.338;2022-12-11T00:24:26;-0.70;1.00
40952;DHT22;26682;51.660;19.338;2022-12-11T00:26:14;-0.80;1.00
40952;DHT22;26682;51.660;19.338;2022-12-11T00:28:01;-0.80;1.00
40952;DHT22;26682;51.660;19.338;2022-12-11T00:29:49;-0.80;1.00
40952;DHT22;26682;51.660;19.338;2022-12-11T00:31:36;-0.80;1.00
40952;DHT22;26682;51.660;19.338;2022-12-11T00:33:25;-0.80;1.00
40952;DHT22;26682;51.660;19.338;2022-12-11T00:35:13;-0.80;1.00
40952;DHT22;26682;51.660;19.338;2022-12-11T00:37:00;-0.80;1.00
40952;DHT22;26682;51.660;19.338;2022-12-11T00:38:48;-0.80;1.00
40952;DHT22;26682;51.660;19.338;2022-12-11T00:40:36;-0.80;1.00
40952;DHT22;26682;51.660;19.338;2022-12-11T00:42:23;-0.80;1.00
40952;DHT22;26682;51.660;19.338;2022-12-11T00:44:10;-0.80;1.00
40952;DHT22;26682;51.660;19.338;2022-12-11T00:45:57;-0.80;1.00
40952;DHT22;26682;51.660;19.338;2022-12-11T00:47:44;-0.80;1.00
40952;DHT22;26682;51.660;19.338;2022-12-11T00:49:31;-0.80;1.00
40952;DHT22;26682;51.660;19.338;2022-12-11T00:51:19;-0.70;1.00
40952;DHT22;26682;51.660;19.338;2022-12-11T00:53:06;-0.70;1.00
40952;DHT22;26682;51.660;19.338;2022-12-11T00:54:53;-0.80;1.00
40952;DHT22;26682;51.660;19.338;2022-12-11T00:56:40;-0.80;1.00
40952;DHT22;26682;51.660;19.338;2022-12-11T00:58:27;-0.80;1.00
40952;DHT22;26682;51.660;19.338;2022-12-11T01:00:15;-0.80;1.00
40952;DHT22;26682;51.660;19.338;2022-12-11T01:02:02;-0.80;1.00
40952;DHT22;26682;51.660;19.338;2022-12-11T01:03:50;-0.80;1.00
40952;DHT22;26682;51.660;19.338;2022-12-11T01:05:37;-0.80;1.00
40952;DHT22;26682;51.660;19.338;2022-12-11T01:07:26;-0.80;1.00
40952;DHT22;26682;51.660;19.338;2022-12-11T01:09:13;-0.80;1.00
40952;DHT22;26682;51.660;19.338;2022-12-11T01:11:18;-0.80;1.00
40952;DHT22;26682;51.660;19.338;2022-12-11T01:13:07;-0.80;1.00
40952;DHT22;26682;51.660;19.338;2022-12-11T01:14:54;-0.80;1.00
40952;DHT22;26682;51.660;19.338;2022-12-11T01:16:41;-0.80;1.00
40952;DHT22;26682;51.660;19.338;2022-12-11T01:18:28;-0.80;1.00
40952;DHT22;26682;51.660;19.338;2022-12-11T01:20:16;-0.80;1.00
40952;DHT22;26682;51.660;19.338;2022-12-11T01:22:03;-0.80;1.00
40952;DHT22;26682;51.660;19.338;2022-12-11T01:23:51;-0.80;1.00
40952;DHT22;26682;51.660;19.338;2022-12-11T01:25:38;-0.80;1.00
40952;DHT22;26682;51.660;19.338;2022-12-11T01:27:25;-0.90;1.00
40952;DHT22;26682;51.660;19.338;2022-12-11T01:29:12;-0.90;1.00
40952;DHT22;26682;51.660;19.338;2022-12-11T01:30:59;-0.90;1.00
40952;DHT22;26682;51.660;19.338;2022-12-11T01:32:47;-0.90;1.00
40952;DHT22;26682;51.660;19.338;2022-12-11T01:34:34;-0.90;1.00
40952;DHT22;26682;51.660;19.338;2022-12-11T01:36:22;-1.00;1.00
40952;DHT22;26682;51.660;19.338;2022-12-11T01:38:09;-0.90;1.00
40952;DHT22;26682;51.660;19.338;2022-12-11T01:39:57;-0.90;1.00
40952;DHT22;26682;51.660;19.338;2022-12-11T01:41:44;-0.90;1.00
40952;DHT22;26682;51.660;19.338;2022-12-11T01:43:31;-1.00;1.00
40952;DHT22;26682;51.660;19.338;2022-12-11T01:45:24;-1.00;1.00
40952;DHT22;26682;51.660;19.338;2022-12-11T01:47:13;-1.00;1.00
40952;DHT22;26682;51.660;19.338;2022-12-11T01:49:02;-1.00;1.00
40952;DHT22;26682;51.660;19.338;2022-12-11T01:50:53;-1.00;1.00
40952;DHT22;26682;51.660;19.338;2022-12-11T01:52:42;-1.00;1.00
40952;DHT22;26682;51.660;19.338;2022-12-11T01:54:30;-1.00;1.00
40952;DHT22;26682;51.660;19.338;2022-12-11T01:56:18;-1.00;1.00
40952;DHT22;26682;51.660;19.338;2022-12-11T01:58:05;-1.00;1.00
40952;DHT22;26682;51.660;19.338;2022-12-11T01:59:53;-1.00;1.00
40952;DHT22;26682;51.660;19.338;2022-12-11T02:01:43;-1.00;1.00
40952;DHT22;26682;51.660;19.338;2022-12-11T02:03:33;-1.00;1.00
40952;DHT22;26682;51.660;19.338;2022-12-11T02:05:21;-1.00;1.00
40952;DHT22;26682;51.660;19.338;2022-12-11T02:07:08;-1.00;1.00
40952;DHT22;26682;51.660;19.338;2022-12-11T02:08:56;-1.00;1.00
40952;DHT22;26682;51.660;19.338;2022-12-11T02:10:48;-1.10;1.00
40952;DHT22;26682;51.660;19.338;2022-12-11T02:18:45;-1.10;1.00
40952;DHT22;26682;51.660;19.338;2022-12-11T02:27:46;-1.10;1.00
40952;DHT22;26682;51.660;19.338;2022-12-11T02:29:37;-1.20;1.00
40952;DHT22;26682;51.660;19.338;2022-12-11T02:31:40;-1.20;1.00
40952;DHT22;26682;51.660;19.338;2022-12-11T02:33:40;-1.20;1.00
40952;DHT22;26682;51.660;19.338;2022-12-11T02:35:35;-1.20;1.00
40952;DHT22;26682;51.660;19.338;2022-12-11T02:37:26;-1.20;1.00
40952;DHT22;26682;51.660;19.338;2022-12-11T02:39:16;-1.20;1.00
40952;DHT22;26682;51.660;19.338;2022-12-11T02:41:06;-1.20;1.00
40952;DHT22;26682;51.660;19.338;2022-12-11T02:42:55;-1.20;1.00
40952;DHT22;26682;51.660;19.338;2022-12-11T02:44:44;-1.20;1.00
40952;DHT22;26682;51.660;19.338;2022-12-11T02:46:33;-1.20;1.00
40952;DHT22;26682;51.660;19.338;2022-12-11T02:48:22;-1.20;1.00
40952;DHT22;26682;51.660;19.338;2022-12-11T02:50:12;-1.20;1.00
40952;DHT22;26682;51.660;19.338;2022-12-11T02:52:02;-1.20;1.00
40952;DHT22;26682;51.660;19.338;2022-12-11T02:53:53;-1.30;1.00
40952;DHT22;26682;51.660;19.338;2022-12-11T02:55:43;-1.20;1.00
40952;DHT22;26682;51.660;19.338;2022-12-11T02:57:38;-1.30;1.00
40952;DHT22;26682;51.660;19.338;2022-12-11T02:59:31;-1.20;1.00
40952;DHT22;26682;51.660;19.338;2022-12-11T03:01:18;-1.30;1.00
40952;DHT22;26682;51.660;19.338;2022-12-11T03:03:06;-1.30;1.00
40952;DHT22;26682;51.660;19.338;2022-12-11T03:04:53;-1.30;1.00
40952;DHT22;26682;51.660;19.338;2022-12-11T03:06:48;-1.20;1.00
40952;DHT22;26682;51.660;19.338;2022-12-11T03:08:37;-1.20;1.00
40952;DHT22;26682;51.660;19.338;2022-12-11T03:10:24;-1.30;1.00
40952;DHT22;26682;51.660;19.338;2022-12-11T03:12:15;-1.30;1.00
40952;DHT22;26682;51.660;19.338;2022-12-11T03:14:04;-1.30;1.00
40952;DHT22;26682;51.660;19.338;2022-12-11T03:16:24;-1.30;1.00
40952;DHT22;26682;51.660;19.338;2022-12-11T03:18:20;-1.30;1.00
40952;DHT22;26682;51.660;19.338;2022-12-11T03:22:15;-1.40;1.00
40952;DHT22;26682;51.660;19.338;2022-12-11T03:26:11;-1.40;1.00
40952;DHT22;26682;51.660;19.338;2022-12-11T03:28:18;-1.50;1.00
40952;DHT22;26682;51.660;19.338;2022-12-11T03:30:10;-1.40;1.00
40952;DHT22;26682;51.660;19.338;2022-12-11T03:33:53;-1.50;1.00
40952;DHT22;26682;51.660;19.338;2022-12-11T03:35:44;-1.50;1.00
40952;DHT22;26682;51.660;19.338;2022-12-11T03:37:35;-1.50;1.00
40952;DHT22;26682;51.660;19.338;2022-12-11T03:39:32;-1.50;1.00
40952;DHT22;26682;51.660;19.338;2022-12-11T03:41:24;-1.50;1.00
40952;DHT22;26682;51.660;19.338;2022-12-11T03:43:13;-1.50;1.00
40952;DHT22;26682;51.660;19.338;2022-12-11T03:45:02;-1.50;1.00
40952;DHT22;26682;51.660;19.338;2022-12-11T03:46:52;-1.50;1.00
40952;DHT22;26682;51.660;19.338;2022-12-11T03:48:40;-1.50;1.00
40952;DHT22;26682;51.660;19.338;2022-12-11T03:50:31;-1.50;1.00
40952;DHT22;26682;51.660;19.338;2022-12-11T03:52:20;-1.50;1.00
40952;DHT22;26682;51.660;19.338;2022-12-11T03:54:08;-1.50;1.00
40952;DHT22;26682;51.660;19.338;2022-12-11T03:55:57;-1.60;1.00
40952;DHT22;26682;51.660;19.338;2022-12-11T03:57:45;-1.60;1.00
40952;DHT22;26682;51.660;19.338;2022-12-11T03:59:32;-1.60;1.00
40952;DHT22;26682;51.660;19.338;2022-12-11T04:01:19;-1.60;1.00
40952;DHT22;26682;51.660;19.338;2022-12-11T04:03:06;-1.70;1.00
40952;DHT22;26682;51.660;19.338;2022-12-11T04:05:00;-1.70;1.00
40952;DHT22;26682;51.660;19.338;2022-12-11T04:06:47;-1.70;1.00
40952;DHT22;26682;51.660;19.338;2022-12-11T04:08:34;-1.70;5.50
40952;DHT22;26682;51.660;19.338;2022-12-11T04:10:21;-1.70;12.40
40952;DHT22;26682;51.660;19.338;2022-12-11T04:12:09;-1.60;11.30
40952;DHT22;26682;51.660;19.338;2022-12-11T04:13:56;-1.70;9.90
40952;DHT22;26682;51.660;19.338;2022-12-11T04:16:09;-1.60;8.80
40952;DHT22;26682;51.660;19.338;2022-12-11T04:17:56;-1.70;6.40
40952;DHT22;26682;51.660;19.338;2022-12-11T04:20:03;-1.70;5.30
40952;DHT22;26682;51.660;19.338;2022-12-11T04:22:11;-1.70;9.00
40952;DHT22;26682;51.660;19.338;2022-12-11T04:24:19;-1.70;7.40
40952;DHT22;26682;51.660;19.338;2022-12-11T04:26:09;-1.70;4.10
40952;DHT22;26682;51.660;19.338;2022-12-11T04:27:56;-1.70;5.10
40952;DHT22;26682;51.660;19.338;2022-12-11T04:29:43;-1.70;13.10
40952;DHT22;26682;51.660;19.338;2022-12-11T04:31:30;-1.70;15.10
40952;DHT22;26682;51.660;19.338;2022-12-11T04:33:17;-1.70;16.20
40952;DHT22;26682;51.660;19.338;2022-12-11T04:35:06;-1.70;16.40
40952;DHT22;26682;51.660;19.338;2022-12-11T04:36:54;-1.70;16.70
40952;DHT22;26682;51.660;19.338;2022-12-11T04:38:42;-1.70;23.50
40952;DHT22;26682;51.660;19.338;2022-12-11T04:40:29;-1.70;24.10
40952;DHT22;26682;51.660;19.338;2022-12-11T04:42:16;-1.70;28.90
40952;DHT22;26682;51.660;19.338;2022-12-11T04:44:03;-1.70;27.20
40952;DHT22;26682;51.660;19.338;2022-12-11T04:46:06;-1.70;21.30
40952;DHT22;26682;51.660;19.338;2022-12-11T04:47:54;-1.70;14.50
40952;DHT22;26682;51.660;19.338;2022-12-11T04:49:41;-1.70;16.10
40952;DHT22;26682;51.660;19.338;2022-12-11T04:51:28;-1.70;8.00
40952;DHT22;26682;51.660;19.338;2022-12-11T04:53:15;-1.70;1.50
40952;DHT22;26682;51.660;19.338;2022-12-11T04:55:04;-1.80;1.00
40952;DHT22;26682;51.660;19.338;2022-12-11T04:56:52;-1.80;1.00
40952;DHT22;26682;51.660;19.338;2022-12-11T04:58:40;-1.70;1.00
40952;DHT22;26682;51.660;19.338;2022-12-11T05:00:27;-1.80;1.00
40952;DHT22;26682;51.660;19.338;2022-12-11T05:02:15;-1.80;1.00
40952;DHT22;26682;51.660;19.338;2022-12-11T05:04:02;-1.80;1.00
40952;DHT22;26682;51.660;19.338;2022-12-11T05:05:51;-1.80;1.00
40952;DHT22;26682;51.660;19.338;2022-12-11T05:07:39;-1.80;1.00
40952;DHT22;26682;51.660;19.338;2022-12-11T05:09:27;-1.80;1.00
40952;DHT22;26682;51.660;19.338;2022-12-11T05:11:14;-1.80;1.00
40952;DHT22;26682;51.660;19.338;2022-12-11T05:13:01;-1.90;1.00
40952;DHT22;26682;51.660;19.338;2022-12-11T05:14:52;-1.90;1.00
40952;DHT22;26682;51.660;19.338;2022-12-11T05:16:40;-1.90;1.00
40952;DHT22;26682;51.660;19.338;2022-12-11T05:18:27;-1.80;1.00
40952;DHT22;26682;51.660;19.338;2022-12-11T05:20:14;-1.90;1.00
40952;DHT22;26682;51.660;19.338;2022-12-11T05:22:01;-1.90;1.00
40952;DHT22;26682;51.660;19.338;2022-12-11T05:23:48;-1.90;1.00
40952;DHT22;26682;51.660;19.338;2022-12-11T05:25:35;-1.90;1.00
40952;DHT22;26682;51.660;19.338;2022-12-11T05:27:22;-1.90;1.00
40952;DHT22;26682;51.660;19.338;2022-12-11T05:29:10;-1.90;1.00
40952;DHT22;26682;51.660;19.338;2022-12-11T05:31:00;-1.90;1.00
40952;DHT22;26682;51.660;19.338;2022-12-11T05:32:47;-1.90;1.00
40952;DHT22;26682;51.660;19.338;2022-12-11T05:34:34;-1.90;1.00
40952;DHT22;26682;51.660;19.338;2022-12-11T05:36:25;-1.90;1.00
40952;DHT22;26682;51.660;19.338;2022-12-11T05:38:13;-1.90;1.00
40952;DHT22;26682;51.660;19.338;2022-12-11T05:40:00;-1.90;1.00
40952;DHT22;26682;51.660;19.338;2022-12-11T05:41:47;-1.90;1.00
40952;DHT22;26682;51.660;19.338;2022-12-11T05:43:35;-2.00;1.00
40952;DHT22;26682;51.660;19.338;2022-12-11T05:45:22;-1.90;1.00
40952;DHT22;26682;51.660;19.338;2022-12-11T05:47:09;-1.90;1.00
40952;DHT22;26682;51.660;19.338;2022-12-11T05:48:59;-1.90;1.00
40952;DHT22;26682;51.660;19.338;2022-12-11T05:50:59;-1.90;1.00
40952;DHT22;26682;51.660;19.338;2022-12-11T05:52:47;-1.90;1.00
40952;DHT22;26682;51.660;19.338;2022-12-11T05:54:35;-1.90;1.00
40952;DHT22;26682;51.660;19.338;2022-12-11T05:56:27;-1.90;1.00
40952;DHT22;26682;51.660;19.338;2022-12-11T05:58:14;-2.00;1.00
40952;DHT22;26682;51.660;19.338;2022-12-11T06:00:04;-2.00;1.00
40952;DHT22;26682;51.660;19.338;2022-12-11T06:01:51;-2.00;1.00
40952;DHT22;26682;51.660;19.338;2022-12-11T06:03:38;-2.00;1.00
40952;DHT22;26682;51.660;19.338;2022-12-11T06:05:25;-2.00;1.00
40952;DHT22;26682;51.660;19.338;2022-12-11T06:07:12;-2.00;1.00
40952;DHT22;26682;51.660;19.338;2022-12-11T06:09:01;-2.00;1.00
40952;DHT22;26682;51.660;19.338;2022-12-11T06:10:48;-2.00;1.00
40952;DHT22;26682;51.660;19.338;2022-12-11T06:12:36;-2.00;1.00
40952;DHT22;26682;51.660;19.338;2022-12-11T06:14:23;-2.00;1.00
40952;DHT22;26682;51.660;19.338;2022-12-11T06:16:10;-2.00;1.00
40952;DHT22;26682;51.660;19.338;2022-12-11T06:17:57;-2.00;1.00
40952;DHT22;26682;51.660;19.338;2022-12-11T06:19:45;-2.00;1.00
40952;DHT22;26682;51.660;19.338;2022-12-11T06:21:32;-2.00;1.00
40952;DHT22;26682;51.660;19.338;2022-12-11T06:23:19;-2.00;1.00
40952;DHT22;26682;51.660;19.338;2022-12-11T06:25:07;-2.00;1.00
40952;DHT22;26682;51.660;19.338;2022-12-11T06:26:55;-2.10;1.00
40952;DHT22;26682;51.660;19.338;2022-12-11T06:28:43;-2.00;1.00
40952;DHT22;26682;51.660;19.338;2022-12-11T06:30:30;-2.10;1.00
40952;DHT22;26682;51.660;19.338;2022-12-11T06:32:25;-2.10;1.00
40952;DHT22;26682;51.660;19.338;2022-12-11T06:34:13;-2.00;1.00
40952;DHT22;26682;51.660;19.338;2022-12-11T06:36:01;-2.10;1.00
40952;DHT22;26682;51.660;19.338;2022-12-11T06:37:49;-2.10;1.00
40952;DHT22;26682;51.660;19.338;2022-12-11T06:39:36;-2.00;1.00
40952;DHT22;26682;51.660;19.338;2022-12-11T06:41:23;-2.00;1.00
40952;DHT22;26682;51.660;19.338;2022-12-11T06:43:11;-2.10;1.00
40952;DHT22;26682;51.660;19.338;2022-12-11T06:44:58;-2.10;1.00
40952;DHT22;26682;51.660;19.338;2022-12-11T06:46:46;-2.10;1.00
40952;DHT22;26682;51.660;19.338;2022-12-11T06:48:33;-2.10;1.00
40952;DHT22;26682;51.660;19.338;2022-12-11T06:50:21;-2.10;1.00
40952;DHT22;26682;51.660;19.338;2022-12-11T06:52:08;-2.10;1.00
40952;DHT22;26682;51.660;19.338;2022-12-11T06:54:02;-2.10;1.00
40952;DHT22;26682;51.660;19.338;2022-12-11T06:55:49;-2.10;1.00
40952;DHT22;26682;51.660;19.338;2022-12-11T06:57:37;-2.10;1.00
40952;DHT22;26682;51.660;19.338;2022-12-11T06:59:24;-2.10;1.00
40952;DHT22;26682;51.660;19.338;2022-12-11T07:03:06;-2.20;1.00
40952;DHT22;26682;51.660;19.338;2022-12-11T07:04:53;-2.20;1.00
40952;DHT22;26682;51.660;19.338;2022-12-11T07:06:41;-2.10;1.00
40952;DHT22;26682;51.660;19.338;2022-12-11T07:08:28;-2.20;1.00
40952;DHT22;26682;51.660;19.338;2022-12-11T07:10:16;-2.20;1.00
40952;DHT22;26682;51.660;19.338;2022-12-11T07:12:03;-2.20;1.00
40952;DHT22;26682;51.660;19.338;2022-12-11T07:13:51;-2.20;1.00
40952;DHT22;26682;51.660;19.338;2022-12-11T07:15:38;-2.20;1.00
40952;DHT22;26682;51.660;19.338;2022-12-11T07:17:28;-2.20;1.00
40952;DHT22;26682;51.660;19.338;2022-12-11T07:19:15;-2.20;1.00
40952;DHT22;26682;51.660;19.338;2022-12-11T07:21:03;-2.20;1.00
40952;DHT22;26682;51.660;19.338;2022-12-11T07:22:52;-2.20;1.00
40952;DHT22;26682;51.660;19.338;2022-12-11T07:24:40;-2.20;1.00
40952;DHT22;26682;51.660;19.338;2022-12-11T07:26:28;-2.20;1.00
40952;DHT22;26682;51.660;19.338;2022-12-11T07:28:20;-2.20;1.00
40952;DHT22;26682;51.660;19.338;2022-12-11T07:30:08;-2.20;1.00
40952;DHT22;26682;51.660;19.338;2022-12-11T07:31:56;-2.20;1.00
40952;DHT22;26682;51.660;19.338;2022-12-11T07:33:44;-2.20;1.00
40952;DHT22;26682;51.660;19.338;2022-12-11T07:35:33;-2.20;1.00
40952;DHT22;26682;51.660;19.338;2022-12-11T07:37:21;-2.20;1.00
40952;DHT22;26682;51.660;19.338;2022-12-11T07:39:10;-2.20;1.00
40952;DHT22;26682;51.660;19.338;2022-12-11T07:41:03;-2.30;1.00
40952;DHT22;26682;51.660;19.338;2022-12-11T07:42:51;-2.30;1.00
40952;DHT22;26682;51.660;19.338;2022-12-11T07:44:38;-2.30;1.00
40952;DHT22;26682;51.660;19.338;2022-12-11T07:46:28;-2.30;1.00
40952;DHT22;26682;51.660;19.338;2022-12-11T07:48:16;-2.30;1.00
40952;DHT22;26682;51.660;19.338;2022-12-11T07:50:03;-2.30;1.00
40952;DHT22;26682;51.660;19.338;2022-12-11T07:51:51;-2.30;1.00
40952;DHT22;26682;51.660;19.338;2022-12-11T07:53:38;-2.20;1.00
40952;DHT22;26682;51.660;19.338;2022-12-11T07:55:25;-2.20;1.00
40952;DHT22;26682;51.660;19.338;2022-12-11T07:57:12;-2.20;9.60
40952;DHT22;26682;51.660;19.338;2022-12-11T07:59:02;-2.20;9.70
40952;DHT22;26682;51.660;19.338;2022-12-11T08:00:49;-2.20;13.10
40952;DHT22;26682;51.660;19.338;2022-12-11T08:02:38;-2.10;15.80
40952;DHT22;26682;51.660;19.338;2022-12-11T08:04:25;-2.10;17.30
40952;DHT22;26682;51.660;19.338;2022-12-11T08:06:13;-2.10;20.50
40952;DHT22;26682;51.660;19.338;2022-12-11T08:08:00;-2.10;24.20
40952;DHT22;26682;51.660;19.338;2022-12-11T08:09:47;-2.10;18.20
40952;DHT22;26682;51.660;19.338;2022-12-11T08:11:35;-2.10;10.50
40952;DHT22;26682;51.660;19.338;2022-12-11T08:13:22;-2.20;4.10
40952;DHT22;26682;51.660;19.338;2022-12-11T08:15:10;-2.20;1.00
40952;DHT22;26682;51.660;19.338;2022-12-11T08:16:57;-2.20;1.00
40952;DHT22;26682;51.660;19.338;2022-12-11T08:18:46;-2.10;1.00
40952;DHT22;26682;51.660;19.338;2022-12-11T08:20:33;-2.10;1.00
40952;DHT22;26682;51.660;19.338;2022-12-11T08:22:23;-2.10;1.00
40952;DHT22;26682;51.660;19.338;2022-12-11T08:24:10;-2.10;1.00
40952;DHT22;26682;51.660;19.338;2022-12-11T08:25:57;-2.20;1.00
40952;DHT22;26682;51.660;19.338;2022-12-11T08:27:44;-2.20;1.00
40952;DHT22;26682;51.660;19.338;2022-12-11T08:29:32;-2.20;1.00
40952;DHT22;26682;51.660;19.338;2022-12-11T08:31:20;-2.20;1.00
40952;DHT22;26682;51.660;19.338;2022-12-11T08:33:07;-2.20;1.00
40952;DHT22;26682;51.660;19.338;2022-12-11T08:34:55;-2.10;1.00
40952;DHT22;26682;51.660;19.338;2022-12-11T08:36:42;-2.10;1.00
40952;DHT22;26682;51.660;19.338;2022-12-11T08:38:30;-2.10;1.00
40952;DHT22;26682;51.660;19.338;2022-12-11T08:40:17;-2.10;1.00
40952;DHT22;26682;51.660;19.338;2022-12-11T08:42:05;-2.10;1.00
40952;DHT22;26682;51.660;19.338;2022-12-11T08:43:55;-2.10;1.00
40952;DHT22;26682;51.660;19.338;2022-12-11T08:45:44;-2.10;1.00
40952;DHT22;26682;51.660;19.338;2022-12-11T08:47:31;-2.10;1.00
40952;DHT22;26682;51.660;19.338;2022-12-11T08:49:19;-2.10;1.00
40952;DHT22;26682;51.660;19.338;2022-12-11T08:51:08;-2.10;1.00
40952;DHT22;26682;51.660;19.338;2022-12-11T08:52:56;-2.20;1.00
40952;DHT22;26682;51.660;19.338;2022-12-11T08:54:44;-2.20;1.00
40952;DHT22;26682;51.660;19.338;2022-12-11T08:56:31;-2.10;1.00
40952;DHT22;26682;51.660;19.338;2022-12-11T08:58:18;-2.10;1.00
40952;DHT22;26682;51.660;19.338;2022-12-11T09:00:12;-2.10;1.00
40952;DHT22;26682;51.660;19.338;2022-12-11T09:01:59;-2.10;1.00
40952;DHT22;26682;51.660;19.338;2022-12-11T09:03:47;-2.10;1.00
40952;DHT22;26682;51.660;19.338;2022-12-11T09:05:37;-2.10;1.00
40952;DHT22;26682;51.660;19.338;2022-12-11T09:07:24;-2.10;1.00
40952;DHT22;26682;51.660;19.338;2022-12-11T09:09:12;-2.10;1.00
40952;DHT22;26682;51.660;19.338;2022-12-11T09:11:04;-2.00;1.00
40952;DHT22;26682;51.660;19.338;2022-12-11T09:12:52;-2.00;1.00
40952;DHT22;26682;51.660;19.338;2022-12-11T09:14:39;-2.00;1.00
40952;DHT22;26682;51.660;19.338;2022-12-11T09:16:28;-2.00;1.00
40952;DHT22;26682;51.660;19.338;2022-12-11T09:18:15;-2.00;1.00
40952;DHT22;26682;51.660;19.338;2022-12-11T09:20:03;-1.80;1.00
40952;DHT22;26682;51.660;19.338;2022-12-11T09:21:51;-1.70;1.00
40952;DHT22;26682;51.660;19.338;2022-12-11T09:23:39;-1.70;1.00
40952;DHT22;26682;51.660;19.338;2022-12-11T09:25:26;-1.70;1.00
40952;DHT22;26682;51.660;19.338;2022-12-11T09:27:13;-1.80;1.00
40952;DHT22;26682;51.660;19.338;2022-12-11T09:29:03;-1.80;1.00
40952;DHT22;26682;51.660;19.338;2022-12-11T09:30:50;-1.80;1.00
40952;DHT22;26682;51.660;19.338;2022-12-11T09:32:38;-1.70;1.00
40952;DHT22;26682;51.660;19.338;2022-12-11T09:34:25;-1.80;1.00
40952;DHT22;26682;51.660;19.338;2022-12-11T09:36:15;-1.80;1.00
40952;DHT22;26682;51.660;19.338;2022-12-11T09:38:03;-1.80;1.00
40952;DHT22;26682;51.660;19.338;2022-12-11T09:39:50;-1.80;1.00
40952;DHT22;26682;51.660;19.338;2022-12-11T09:46:13;-1.80;1.00
40952;DHT22;26682;51.660;19.338;2022-12-11T09:48:01;-1.80;1.00
40952;DHT22;26682;51.660;19.338;2022-12-11T09:49:53;-1.80;1.00
40952;DHT22;26682;51.660;19.338;2022-12-11T09:51:49;-1.70;1.00
40952;DHT22;26682;51.660;19.338;2022-12-11T09:53:38;-1.70;1.00
40952;DHT22;26682;51.660;19.338;2022-12-11T09:55:31;-1.80;1.00
40952;DHT22;26682;51.660;19.338;2022-12-11T10:02:02;-1.80;1.00
40952;DHT22;26682;51.660;19.338;2022-12-11T10:08:20;-1.70;1.00
40952;DHT22;26682;51.660;19.338;2022-12-11T10:10:17;-1.70;1.00
40952;DHT22;26682;51.660;19.338;2022-12-11T10:18:19;-1.70;1.00
40952;DHT22;26682;51.660;19.338;2022-12-11T10:20:24;-1.70;1.00
40952;DHT22;26682;51.660;19.338;2022-12-11T10:22:21;-1.70;99.90
40952;DHT22;26682;51.660;19.338;2022-12-11T10:26:38;-1.70;99.90
40952;DHT22;26682;51.660;19.338;2022-12-11T10:28:26;-1.70;99.90
40952;DHT22;26682;51.660;19.338;2022-12-11T10:30:25;-1.70;99.90
40952;DHT22;26682;51.660;19.338;2022-12-11T10:32:23;-1.60;99.90
40952;DHT22;26682;51.660;19.338;2022-12-11T10:34:14;-1.60;99.90
40952;DHT22;26682;51.660;19.338;2022-12-11T10:36:04;-1.70;99.90
40952;DHT22;26682;51.660;19.338;2022-12-11T10:38:01;-1.70;99.90
40952;DHT22;26682;51.660;19.338;2022-12-11T10:39:55;-1.70;99.90
40952;DHT22;26682;51.660;19.338;2022-12-11T10:41:45;-1.80;99.90
40952;DHT22;26682;51.660;19.338;2022-12-11T10:43:41;-1.80;99.90
40952;DHT22;26682;51.660;19.338;2022-12-11T10:45:29;-1.80;99.90
40952;DHT22;26682;51.660;19.338;2022-12-11T10:47:17;-1.80;99.90
40952;DHT22;26682;51.660;19.338;2022-12-11T10:49:05;-1.80;99.90
40952;DHT22;26682;51.660;19.338;2022-12-11T10:51:03;-1.80;99.90
40952;DHT22;26682;51.660;19.338;2022-12-11T10:52:50;-1.70;99.90
40952;DHT22;26682;51.660;19.338;2022-12-11T10:54:41;-1.70;99.90
40952;DHT22;26682;51.660;19.338;2022-12-11T10:56:31;-1.70;99.90
40952;DHT22;26682;51.660;19.338;2022-12-11T10:58:22;-1.70;99.90
40952;DHT22;26682;51.660;19.338;2022-12-11T11:01:01;-1.70;99.90
40952;DHT22;26682;51.660;19.338;2022-12-11T11:02:48;-1.80;99.90
40952;DHT22;26682;51.660;19.338;2022-12-11T11:04:37;-1.80;99.90
40952;DHT22;26682;51.660;19.338;2022-12-11T11:06:28;-1.80;99.90
40952;DHT22;26682;51.660;19.338;2022-12-11T11:08:19;-1.80;99.90
40952;DHT22;26682;51.660;19.338;2022-12-11T11:11:57;-1.80;99.90
40952;DHT22;26682;51.660;19.338;2022-12-11T11:14:15;-1.90;99.90
40952;DHT22;26682;51.660;19.338;2022-12-11T11:16:06;-1.90;99.90
40952;DHT22;26682;51.660;19.338;2022-12-11T11:18:01;-1.80;99.90
40952;DHT22;26682;51.660;19.338;2022-12-11T11:19:50;-1.80;99.90
40952;DHT22;26682;51.660;19.338;2022-12-11T11:21:51;-1.80;99.90
40952;DHT22;26682;51.660;19.338;2022-12-11T11:23:39;-1.80;99.90
40952;DHT22;26682;51.660;19.338;2022-12-11T11:25:33;-1.90;99.90
40952;DHT22;26682;51.660;19.338;2022-12-11T11:27:37;-1.90;99.90
40952;DHT22;26682;51.660;19.338;2022-12-11T11:29:31;-1.90;99.90
40952;DHT22;26682;51.660;19.338;2022-12-11T11:31:29;-1.90;99.90
40952;DHT22;26682;51.660;19.338;2022-12-11T11:33:19;-1.90;99.90
40952;DHT22;26682;51.660;19.338;2022-12-11T11:35:17;-1.90;99.90
40952;DHT22;26682;51.660;19.338;2022-12-11T11:37:04;-1.80;99.90
40952;DHT22;26682;51.660;19.338;2022-12-11T11:39:18;-1.80;99.90
40952;DHT22;26682;51.660;19.338;2022-12-11T11:41:11;-1.80;99.90
40952;DHT22;26682;51.660;19.338;2022-12-11T11:45:50;-1.90;99.90
40952;DHT22;26682;51.660;19.338;2022-12-11T11:47:57;-1.90;99.90
40952;DHT22;26682;51.660;19.338;2022-12-11T11:50:35;-1.90;99.90
40952;DHT22;26682;51.660;19.338;2022-12-11T11:52:25;-1.90;99.90
40952;DHT22;26682;51.660;19.338;2022-12-11T11:54:24;-1.90;99.90
40952;DHT22;26682;51.660;19.338;2022-12-11T11:56:24;-1.90;99.90
40952;DHT22;26682;51.660;19.338;2022-12-11T11:58:19;-2.00;99.90
40952;DHT22;26682;51.660;19.338;2022-12-11T12:00:24;-2.00;99.90
40952;DHT22;26682;51.660;19.338;2022-12-11T12:02:19;-2.00;99.90
40952;DHT22;26682;51.660;19.338;2022-12-11T12:04:07;-2.00;99.90
40952;DHT22;26682;51.660;19.338;2022-12-11T12:05:56;-1.90;99.90
40952;DHT22;26682;51.660;19.338;2022-12-11T12:07:58;-1.90;99.90
40952;DHT22;26682;51.660;19.338;2022-12-11T12:10:02;-1.90;99.90
40952;DHT22;26682;51.660;19.338;2022-12-11T12:12:00;-1.90;99.90
40952;DHT22;26682;51.660;19.338;2022-12-11T12:18:55;-1.90;99.90
40952;DHT22;26682;51.660;19.338;2022-12-11T12:21:01;-2.10;99.90
40952;DHT22;26682;51.660;19.338;2022-12-11T12:23:24;-2.00;99.90
40952;DHT22;26682;51.660;19.338;2022-12-11T12:25:41;-1.90;99.90
40952;DHT22;26682;51.660;19.338;2022-12-11T12:29:53;-1.90;99.90